Time;durP1;ratioP1;P1;durP2;ratioP2;P2;SDS_P1;SDS_P2;PMS_P1;PMS_P2;Temp;Humidity;BMP_temperature;BMP_pressure;BME280_temperature;BME280_humidity;BME280_pressure;Samples;Min_cycle;Max_cycle;Signal;HPM_P1;HPM_P2
2022/08/08 00:02:39;;;;;;;8.48;4.70;;;15.00;99.90;;;;;;5094731;28;20044;-93
2022/08/08 00:05:36;;;;;;;8.32;5.00;;;14.90;99.90;;;;;;5095343;28;20505;-93
2022/08/08 00:08:02;;;;;;;7.05;5.47;;;14.90;99.90;;;;;;5094843;28;20052;-95
2022/08/08 00:10:40;;;;;;;6.85;4.55;;;14.80;99.90;;;;;;5097051;28;20039;-95
2022/08/08 00:13:39;;;;;;;6.00;4.30;;;14.90;99.90;;;;;;5096204;28;20408;-95
2022/08/08 00:16:08;;;;;;;4.53;4.10;;;14.80;99.90;;;;;;5095585;28;20047;-96
2022/08/08 00:18:54;;;;;;;6.40;4.50;;;14.80;99.90;;;;;;5095996;28;20051;-96
2022/08/08 00:21:26;;;;;;;6.00;4.28;;;14.80;99.90;;;;;;5096330;28;20337;-95
2022/08/08 00:24:01;;;;;;;4.78;4.30;;;14.80;99.90;;;;;;5097784;28;20047;-95
2022/08/08 00:26:38;;;;;;;6.15;4.10;;;14.80;99.90;;;;;;5096073;28;20543;-95
2022/08/08 00:29:15;;;;;;;4.97;4.05;;;14.70;99.90;;;;;;5097855;28;20040;-95
2022/08/08 00:31:45;;;;;;;5.05;3.80;;;14.60;99.90;;;;;;5102004;28;20050;-95
2022/08/08 00:37:41;;;;;;;7.88;4.70;;;14.60;99.90;;;;;;5096167;28;20052;-96
2022/08/08 00:40:15;;;;;;;4.85;4.20;;;14.50;99.90;;;;;;5094042;28;20078;-96
2022/08/08 00:42:50;;;;;;;6.55;4.10;;;14.50;99.90;;;;;;5094736;28;20489;-95
2022/08/08 00:45:21;;;;;;;5.30;4.00;;;14.50;99.90;;;;;;5094865;28;20047;-96
2022/08/08 00:48:25;;;;;;;8.63;4.38;;;14.40;99.90;;;;;;5095023;28;20478;-96
2022/08/08 00:50:57;;;;;;;4.70;4.25;;;14.40;99.90;;;;;;5099753;28;20058;-96
2022/08/08 00:53:53;;;;;;;6.22;3.88;;;14.40;99.90;;;;;;5099024;28;20059;-96
2022/08/08 00:56:41;;;;;;;5.85;4.15;;;14.40;99.90;;;;;;5100570;28;20107;-96
2022/08/08 00:59:29;;;;;;;5.20;4.70;;;14.30;99.90;;;;;;5112744;28;20066;-96
2022/08/08 01:02:24;;;;;;;4.60;4.15;;;14.30;99.90;;;;;;5115895;28;20047;-96
2022/08/08 01:05:28;;;;;;;5.47;4.90;;;14.30;99.90;;;;;;5098133;28;20054;-96
2022/08/08 01:08:32;;;;;;;5.65;4.57;;;14.20;99.90;;;;;;5117012;28;20062;-96
2022/08/08 01:11:14;;;;;;;5.30;4.43;;;14.20;99.90;;;;;;5111448;28;20052;-96
2022/08/08 01:13:40;;;;;;;5.53;4.45;;;14.20;99.90;;;;;;5102268;28;20044;-96
2022/08/08 01:16:30;;;;;;;5.50;4.72;;;14.10;99.90;;;;;;5084351;28;20044;-96
2022/08/08 01:19:28;;;;;;;4.57;4.18;;;14.10;99.90;;;;;;5100278;28;20048;-96
2022/08/08 01:22:17;;;;;;;7.18;4.32;;;14.00;99.90;;;;;;5003130;28;20092;-96
2022/08/08 01:25:04;;;;;;;4.88;4.43;;;14.00;99.90;;;;;;5016121;28;20057;-94
2022/08/08 01:27:48;;;;;;;5.03;3.95;;;14.00;99.90;;;;;;5001089;28;20157;-95
2022/08/08 01:30:51;;;;;;;4.90;4.40;;;13.90;99.90;;;;;;5026142;28;20645;-96
2022/08/08 01:33:50;;;;;;;6.40;5.28;;;14.00;99.90;;;;;;5037367;28;20045;-96
2022/08/08 01:36:43;;;;;;;5.30;4.20;;;14.00;99.90;;;;;;5013518;28;20054;-96
2022/08/08 01:39:26;;;;;;;6.38;4.57;;;13.90;99.90;;;;;;5030473;28;20108;-96
2022/08/08 01:42:04;;;;;;;4.68;3.88;;;13.90;99.90;;;;;;5023776;28;20050;-96
2022/08/08 01:44:30;;;;;;;6.72;3.97;;;13.90;99.90;;;;;;5022104;28;20454;-96
2022/08/08 01:47:14;;;;;;;5.45;4.68;;;13.90;99.90;;;;;;5009003;28;20101;-96
2022/08/08 01:49:50;;;;;;;5.15;4.63;;;13.80;99.90;;;;;;5005256;28;20041;-96
2022/08/08 01:52:43;;;;;;;5.53;5.03;;;13.80;99.90;;;;;;5003746;28;20077;-96
2022/08/08 01:55:37;;;;;;;7.47;4.97;;;13.80;99.90;;;;;;5002762;28;20133;-96
2022/08/08 01:58:20;;;;;;;7.25;4.93;;;13.70;99.90;;;;;;5072249;28;20148;-96
2022/08/08 02:01:22;;;;;;;8.18;5.28;;;13.70;99.90;;;;;;5083526;28;20047;-95
2022/08/08 02:04:07;;;;;;;7.07;4.68;;;13.60;99.90;;;;;;5099599;28;20035;-96
2022/08/08 02:07:02;;;;;;;7.63;4.82;;;13.60;99.90;;;;;;5080166;28;20472;-96
2022/08/08 02:09:42;;;;;;;6.40;5.10;;;13.60;99.90;;;;;;5080460;28;20044;-96
2022/08/08 02:12:22;;;;;;;5.75;4.47;;;13.50;99.90;;;;;;5097639;28;20127;-96
2022/08/08 02:15:14;;;;;;;5.30;4.07;;;13.50;99.90;;;;;;5099328;28;20044;-96
2022/08/08 02:18:04;;;;;;;6.72;6.13;;;13.50;99.90;;;;;;5098284;28;20044;-96
2022/08/08 02:20:41;;;;;;;6.68;5.95;;;13.50;99.90;;;;;;5097016;28;20036;-96
2022/08/08 02:23:26;;;;;;;7.68;6.88;;;13.50;99.90;;;;;;5098030;28;20043;-96
2022/08/08 02:26:01;;;;;;;6.82;6.07;;;13.50;99.90;;;;;;5098287;28;20044;-96
2022/08/08 02:28:57;;;;;;;9.80;6.55;;;13.50;99.90;;;;;;5080607;28;20048;-96
2022/08/08 02:32:03;;;;;;;9.18;7.13;;;13.40;99.90;;;;;;5097027;28;20071;-96
2022/08/08 02:34:50;;;;;;;8.55;7.72;;;13.40;99.90;;;;;;5099500;28;20127;-96
2022/08/08 02:37:27;;;;;;;12.05;8.10;;;13.40;99.90;;;;;;5098232;28;20048;-96
2022/08/08 02:39:58;;;;;;;8.48;7.68;;;13.40;99.90;;;;;;5081600;28;20094;-96
2022/08/08 02:43:02;;;;;;;8.90;8.10;;;13.40;99.90;;;;;;5081971;28;20040;-96
2022/08/08 02:46:01;;;;;;;8.50;7.70;;;13.40;99.90;;;;;;5101156;28;20058;-96
2022/08/08 02:49:00;;;;;;;7.80;7.10;;;13.40;99.90;;;;;;5084620;28;20040;-96
2022/08/08 02:51:46;;;;;;;9.02;8.13;;;13.40;99.90;;;;;;5082705;28;20048;-96
2022/08/08 02:54:24;;;;;;;8.93;7.78;;;13.40;99.90;;;;;;5082251;28;20060;-96
2022/08/08 02:57:09;;;;;;;;;;;13.30;99.90;;;;;;5100186;28;20048;-96
2022/08/08 02:59:39;;;;;;;9.00;7.85;;;13.30;99.90;;;;;;5101140;28;19924;-96
2022/08/08 03:02:13;;;;;;;8.85;7.97;;;13.30;99.90;;;;;;5105603;28;20048;-96
2022/08/08 03:05:03;;;;;;;7.38;6.72;;;13.30;99.90;;;;;;5104929;28;20043;-96
2022/08/08 03:08:11;;;;;;;8.45;7.63;;;13.20;99.90;;;;;;5080745;28;20500;-96
2022/08/08 03:11:07;;;;;;;8.20;7.50;;;13.20;99.90;;;;;;5086690;28;20417;-96
2022/08/08 03:13:59;;;;;;;9.05;8.15;;;13.10;99.90;;;;;;5110065;28;20048;-96
2022/08/08 03:16:35;;;;;;;8.20;7.38;;;13.20;99.90;;;;;;5116457;28;20055;-96
2022/08/08 03:19:18;;;;;;;8.20;7.40;;;13.20;99.90;;;;;;5100433;28;20044;-96
2022/08/08 03:21:43;;;;;;;7.65;6.95;;;13.20;99.90;;;;;;5102569;28;20051;-96
2022/08/08 03:24:09;;;;;;;7.22;6.53;;;13.20;99.90;;;;;;5099918;28;20036;-96
2022/08/08 03:26:41;;;;;;;7.80;7.00;;;13.10;99.90;;;;;;5117389;28;20046;-96
2022/08/08 03:29:10;;;;;;;8.15;6.20;;;13.10;99.90;;;;;;5117827;28;20048;-96
2022/08/08 03:34:20;;;;;;;9.73;7.13;;;13.10;99.90;;;;;;5120168;28;20032;-96
2022/08/08 03:36:46;;;;;;;9.57;6.80;;;13.10;99.90;;;;;;5118840;28;20046;-96
2022/08/08 03:39:14;;;;;;;9.40;6.45;;;13.10;99.90;;;;;;5118249;28;20051;-96
2022/08/08 03:41:41;;;;;;;7.72;6.55;;;13.00;99.90;;;;;;5117897;28;20040;-96
2022/08/08 03:44:07;;;;;;;7.13;6.43;;;13.10;99.90;;;;;;5118606;28;20048;-96
2022/08/08 03:46:46;;;;;;;7.45;6.00;;;13.00;99.90;;;;;;5102726;28;20031;-96
2022/08/08 03:49:22;;;;;;;8.23;7.40;;;13.00;99.90;;;;;;5119121;22;20833;-46
2022/08/08 03:51:56;;;;;;;6.65;5.45;;;13.00;99.90;;;;;;5053958;28;20087;-48
2022/08/08 03:54:23;;;;;;;6.43;5.82;;;13.00;99.90;;;;;;5054141;28;20045;-48
2022/08/08 03:56:49;;;;;;;9.35;6.38;;;13.00;99.90;;;;;;5054183;28;20037;-47
2022/08/08 03:59:15;;;;;;;8.90;7.00;;;13.00;99.90;;;;;;5054081;28;20040;-45
2022/08/08 04:01:42;;;;;;;6.75;5.95;;;13.00;99.90;;;;;;5053672;28;20091;-47
2022/08/08 04:04:08;;;;;;;7.47;6.68;;;13.10;99.90;;;;;;5053914;28;20395;-49
2022/08/08 04:06:34;;;;;;;7.78;6.80;;;13.10;99.90;;;;;;5053750;28;20052;-48
2022/08/08 04:09:02;;;;;;;8.27;6.43;;;13.10;99.90;;;;;;5053761;28;20040;-47
2022/08/08 04:11:27;;;;;;;6.57;5.72;;;13.10;99.90;;;;;;5035960;28;20041;-48
2022/08/08 04:13:53;;;;;;;6.78;5.25;;;13.10;99.90;;;;;;5053513;28;20048;-50
2022/08/08 04:16:19;;;;;;;7.47;6.40;;;13.00;99.90;;;;;;5035741;28;20119;-48
2022/08/08 04:18:47;;;;;;;7.65;6.90;;;13.10;99.90;;;;;;5053678;28;20043;-49
2022/08/08 04:21:13;;;;;;;8.00;5.95;;;13.10;99.90;;;;;;5053626;28;20119;-46
2022/08/08 04:23:39;;;;;;;7.53;6.75;;;13.10;99.90;;;;;;5053461;28;20041;-46
2022/08/08 04:26:05;;;;;;;7.03;6.32;;;13.30;99.90;;;;;;5053380;28;20128;-51
2022/08/08 04:28:32;;;;;;;6.45;5.85;;;13.40;99.90;;;;;;5053445;28;20037;-47
2022/08/08 04:30:57;;;;;;;7.15;6.00;;;13.40;99.90;;;;;;5053221;28;20495;-47
2022/08/08 04:33:23;;;;;;;7.15;5.95;;;;;;;;;;5053457;28;20090;-45
2022/08/08 04:35:49;;;;;;;13.43;7.15;;;13.50;99.90;;;;;;5053410;28;20048;-44
2022/08/08 04:38:14;;;;;;;8.27;6.47;;;13.60;99.90;;;;;;5053151;28;20079;-45
2022/08/08 04:40:40;;;;;;;8.65;6.50;;;13.70;99.90;;;;;;5052917;28;20102;-45
2022/08/08 04:43:06;;;;;;;7.95;6.30;;;13.80;99.90;;;;;;5035359;28;20056;-47
2022/08/08 04:45:32;;;;;;;10.02;6.30;;;14.00;99.90;;;;;;5052899;28;20061;-47
2022/08/08 04:47:58;;;;;;;7.00;6.30;;;14.00;99.90;;;;;;5053168;28;20491;-47
2022/08/08 04:50:25;;;;;;;8.43;7.00;;;14.10;99.90;;;;;;5052942;28;20064;-48
2022/08/08 04:52:52;;;;;;;7.93;6.78;;;14.20;99.90;;;;;;5053263;28;20037;-48
2022/08/08 04:55:18;;;;;;;7.03;6.32;;;14.80;99.90;;;;;;5052891;28;20388;-48
2022/08/08 04:57:44;;;;;;;7.10;6.40;;;;;;;;;;5053298;28;20045;-50
2022/08/08 05:00:11;;;;;;;7.88;5.80;;;16.00;99.90;;;;;;5052620;28;20072;-48
2022/08/08 05:02:37;;;;;;;10.23;6.35;;;16.50;99.90;;;;;;5052506;28;20453;-51
2022/08/08 05:05:02;;;;;;;6.28;5.53;;;17.10;99.90;;;;;;5052660;28;20044;-49
2022/08/08 05:07:28;;;;;;;6.93;5.60;;;17.50;99.90;;;;;;5053146;28;20090;-49
2022/08/08 05:09:54;;;;;;;6.85;5.15;;;18.20;99.90;;;;;;5052768;28;20045;-46
2022/08/08 05:12:19;;;;;;;6.13;4.95;;;18.90;99.90;;;;;;5052706;28;20041;-51
2022/08/08 05:14:45;;;;;;;6.45;4.57;;;19.60;99.90;;;;;;5052680;28;20044;-49
2022/08/08 05:17:10;;;;;;;5.32;4.57;;;20.20;99.90;;;;;;5052833;28;20040;-52
2022/08/08 05:19:36;;;;;;;7.15;4.18;;;20.40;99.90;;;;;;5052738;28;20464;-48
2022/08/08 05:22:04;;;;;;;3.88;3.47;;;20.00;99.90;;;;;;5052647;28;20037;-50
2022/08/08 05:24:29;;;;;;;5.93;3.25;;;19.20;99.90;;;;;;5052613;28;20037;-46
2022/08/08 05:26:55;;;;;;;4.32;3.22;;;18.70;99.90;;;;;;5053105;28;20440;-45
2022/08/08 05:29:20;;;;;;;6.38;3.70;;;18.60;99.90;;;;;;5052442;28;20056;-44
2022/08/08 05:31:46;;;;;;;6.22;3.45;;;19.30;99.90;;;;;;5052710;28;20041;-47
2022/08/08 05:34:21;;;;;;;5.53;3.40;;;20.00;99.90;;;;;;5052564;28;20509;-44
2022/08/08 05:36:48;;;;;;;4.05;3.30;;;21.00;99.90;;;;;;5052744;28;20160;-45
2022/08/08 05:39:18;;;;;;;5.70;5.10;;;21.70;99.90;;;;;;5052534;28;20037;-48
2022/08/08 05:41:48;;;;;;;10.98;6.80;;;22.50;99.90;;;;;;5052275;28;20041;-45
2022/08/08 05:44:23;;;;;;;8.50;7.45;;;23.40;99.90;;;;;;5052567;28;20053;-45
2022/08/08 05:46:51;;;;;;;6.75;6.05;;;23.60;99.90;;;;;;5034729;28;20045;-45
2022/08/08 05:49:18;;;;;;;7.43;6.03;;;24.30;99.90;;;;;;5034401;28;20484;-45
2022/08/08 05:51:45;;;;;;;6.30;4.57;;;24.60;99.90;;;;;;5052404;28;20110;-47
2022/08/08 05:54:11;;;;;;;8.35;4.40;;;25.10;99.90;;;;;;5052257;28;20085;-49
2022/08/08 05:56:39;;;;;;;4.90;3.35;;;25.50;99.90;;;;;;5052613;28;20033;-45
2022/08/08 05:59:09;;;;;;;5.65;2.95;;;26.10;99.90;;;;;;5052463;28;20112;-46
2022/08/08 06:01:39;;;;;;;5.88;2.90;;;26.30;99.90;;;;;;5052490;28;20045;-46
2022/08/08 06:04:09;;;;;;;5.80;2.67;;;26.00;98.40;;;;;;5052351;28;20068;-48
2022/08/08 06:06:41;;;;;;;7.00;2.47;;;26.20;99.90;;;;;;5052409;28;20049;-49
2022/08/08 06:09:08;;;;;;;5.63;2.60;;;26.20;97.50;;;;;;5052218;28;20483;-47
2022/08/08 06:11:34;;;;;;;4.00;2.20;;;26.20;97.10;;;;;;5052284;28;20045;-46
2022/08/08 06:14:05;;;;;;;4.78;2.33;;;26.10;96.70;;;;;;5052467;28;20041;-46
2022/08/08 06:16:35;;;;;;;5.55;2.40;;;26.50;97.30;;;;;;5055964;28;20068;-48
2022/08/08 06:19:01;;;;;;;4.18;2.30;;;26.40;96.60;;;;;;5055900;28;20166;-51
2022/08/08 06:21:27;;;;;;;4.00;2.40;;;26.60;95.70;;;;;;5055756;28;20129;-47
2022/08/08 06:23:53;;;;;;;5.05;2.70;;;25.40;94.80;;;;;;5055694;28;20556;-45
2022/08/08 06:26:22;;;;;;;3.58;2.22;;;25.70;95.50;;;;;;5055979;28;20049;-46
2022/08/08 06:28:52;;;;;;;4.70;2.75;;;25.50;95.30;;;;;;5055575;28;20041;-47
2022/08/08 06:31:22;;;;;;;5.45;2.60;;;25.40;94.70;;;;;;5055629;28;20124;-47
2022/08/08 06:33:56;;;;;;;3.25;2.30;;;25.20;95.60;;;;;;5056011;28;20052;-46
2022/08/08 06:36:36;;;;;;;5.57;3.05;;;25.70;95.80;;;;;;5055681;28;20040;-47
2022/08/08 06:39:03;;;;;;;5.13;2.58;;;25.60;95.00;;;;;;5055700;28;20045;-48
2022/08/08 06:41:32;;;;;;;8.73;2.90;;;25.80;95.50;;;;;;5055344;28;20045;-45
2022/08/08 06:44:02;;;;;;;3.10;2.80;;;26.20;95.30;;;;;;5055299;28;20426;-46
2022/08/08 06:46:28;;;;;;;3.33;2.53;;;26.00;94.10;;;;;;5055188;28;20045;-47
2022/08/08 06:48:55;;;;;;;4.30;2.58;;;26.20;94.70;;;;;;5055312;28;20045;-47
2022/08/08 06:51:21;;;;;;;5.27;2.70;;;26.70;94.20;;;;;;5055436;28;20049;-45
2022/08/08 06:53:47;;;;;;;3.90;2.60;;;26.70;94.10;;;;;;5055357;28;20083;-45
2022/08/08 06:56:13;;;;;;;5.47;2.70;;;27.00;94.00;;;;;;5055158;28;20072;-46
2022/08/08 06:58:38;;;;;;;6.25;2.70;;;26.70;92.90;;;;;;5055085;28;20041;-50
2022/08/08 07:01:07;;;;;;;5.00;2.50;;;26.90;93.40;;;;;;5053921;28;20039;-46
2022/08/08 07:04:00;;;;;;;5.13;2.70;;;26.50;93.20;;;;;;5037296;28;20052;-46
2022/08/08 07:06:32;;;;;;;4.82;2.70;;;26.50;93.70;;;;;;5054943;28;20088;-48
2022/08/08 07:09:05;;;;;;;4.18;2.30;;;25.70;93.10;;;;;;5054993;28;20044;-45
2022/08/08 07:11:37;;;;;;;5.20;3.08;;;25.80;93.70;;;;;;5055080;28;20048;-46
2022/08/08 07:14:06;;;;;;;6.10;2.65;;;26.20;94.00;;;;;;5054960;28;20063;-46
2022/08/08 07:16:50;;;;;;;5.47;2.25;;;26.00;93.70;;;;;;5036838;28;20445;-45
2022/08/08 07:19:29;;;;;;;4.03;1.88;;;26.50;93.60;;;;;;5054722;28;20467;-46
2022/08/08 07:22:06;;;;;;;4.70;1.92;;;27.00;93.60;;;;;;5054711;28;20045;-47
2022/08/08 07:25:02;;;;;;;4.03;1.77;;;27.20;93.00;;;;;;5054661;28;20045;-46
2022/08/08 07:27:35;;;;;;;2.97;1.73;;;27.30;92.50;;;;;;5054041;28;20041;-46
2022/08/08 07:30:01;;;;;;;5.25;1.73;;;27.60;92.20;;;;;;5054532;28;20041;-48
2022/08/08 07:32:27;;;;;;;7.05;1.80;;;27.60;91.80;;;;;;5054588;28;20045;-47
2022/08/08 07:34:54;;;;;;;3.03;1.42;;;27.50;91.50;;;;;;5054506;28;20418;-45
2022/08/08 07:37:22;;;;;;;6.82;2.22;;;26.80;91.00;;;;;;5054419;28;20041;-45
2022/08/08 07:39:48;;;;;;;3.90;2.05;;;25.70;91.70;;;;;;5054213;28;20052;-49
2022/08/08 07:42:16;;;;;;;7.40;2.42;;;25.30;92.40;;;;;;5054359;28;20084;-48
2022/08/08 07:44:45;;;;;;;5.18;1.70;;;24.90;92.90;;;;;;5054380;28;20049;-46
2022/08/08 07:47:11;;;;;;;7.20;1.85;;;24.70;93.80;;;;;;5054284;28;20041;-45
2022/08/08 07:49:38;;;;;;;4.68;2.00;;;23.90;93.80;;;;;;5054005;28;20178;-46
2022/08/08 07:52:07;;;;;;;5.38;1.58;;;23.40;94.20;;;;;;5054418;28;20418;-46
2022/08/08 07:54:41;;;;;;;5.45;1.38;;;23.10;94.80;;;;;;5054041;28;20458;-47
2022/08/08 07:57:28;;;;;;;5.38;1.83;;;22.80;95.10;;;;;;5053855;28;20044;-46
2022/08/08 08:00:14;;;;;;;4.38;1.63;;;22.60;95.70;;;;;;5054152;28;20045;-44
2022/08/08 08:02:43;;;;;;;4.63;1.65;;;22.40;96.00;;;;;;5054105;28;20037;-47
2022/08/08 08:05:21;;;;;;;3.13;1.33;;;22.10;96.70;;;;;;5053920;28;20403;-45
2022/08/08 08:07:48;;;;;;;3.95;1.27;;;22.50;96.80;;;;;;5053795;28;20055;-45
2022/08/08 08:10:17;;;;;;;4.03;1.30;;;22.70;96.90;;;;;;5053832;28;20056;-46
2022/08/08 08:12:51;;;;;;;5.30;1.65;;;23.10;96.50;;;;;;5053902;28;20043;-49
2022/08/08 08:15:18;;;;;;;4.95;1.60;;;22.50;96.90;;;;;;5053795;28;20083;-46
2022/08/08 08:17:47;;;;;;;3.38;1.30;;;22.80;97.60;;;;;;5053655;28;20045;-47
2022/08/08 08:20:15;;;;;;;4.32;1.60;;;23.20;98.10;;;;;;5053596;28;20352;-46
2022/08/08 08:22:40;;;;;;;;;;;23.20;97.00;;;;;;5036504;28;20134;-48
2022/08/08 08:25:06;;;;;;;4.85;1.83;;;22.80;96.90;;;;;;5053698;28;19964;-47
2022/08/08 08:27:32;;;;;;;6.20;1.40;;;22.90;97.30;;;;;;5053679;28;20491;-47
2022/08/08 08:29:58;;;;;;;3.08;1.48;;;23.40;97.70;;;;;;5053756;28;20087;-50
2022/08/08 08:32:24;;;;;;;5.00;1.33;;;23.20;96.50;;;;;;5053341;28;20499;-46
2022/08/08 08:34:51;;;;;;;6.47;1.48;;;22.90;96.80;;;;;;5053269;28;20376;-49
2022/08/08 08:37:17;;;;;;;6.70;1.53;;;22.70;97.30;;;;;;5052951;28;20045;-50
2022/08/08 08:39:42;;;;;;;4.75;1.67;;;22.60;97.10;;;;;;5052718;28;20287;-46
2022/08/08 08:42:09;;;;;;;4.13;1.30;;;22.00;97.50;;;;;;5053280;28;20133;-48
2022/08/08 08:44:36;;;;;;;4.05;1.42;;;22.30;97.90;;;;;;5053216;28;20041;-45
2022/08/08 08:47:02;;;;;;;3.95;1.30;;;22.20;98.30;;;;;;5035467;28;20037;-51
2022/08/08 08:49:28;;;;;;;4.88;1.25;;;22.20;97.90;;;;;;5052681;28;20388;-47
2022/08/08 08:52:00;;;;;;;6.40;1.60;;;22.20;97.90;;;;;;5053196;28;20049;-48
2022/08/08 08:54:27;;;;;;;3.80;1.33;;;22.40;97.50;;;;;;5053126;28;20047;-47
2022/08/08 08:56:54;;;;;;;2.25;1.33;;;22.40;97.30;;;;;;5053166;28;20056;-48
2022/08/08 08:59:20;;;;;;;3.47;1.20;;;22.50;97.40;;;;;;5053018;28;20403;-46
2022/08/08 09:01:51;;;;;;;2.08;0.90;;;22.70;96.80;;;;;;5052815;28;20045;-45
2022/08/08 09:04:21;;;;;;;6.32;1.55;;;22.60;96.30;;;;;;5053047;28;20068;-49
2022/08/08 09:06:49;;;;;;;3.42;1.33;;;23.10;97.20;;;;;;5053164;28;20072;-49
2022/08/08 09:09:26;;;;;;;4.20;1.60;;;22.90;95.90;;;;;;5052837;28;20053;-47
2022/08/08 09:11:53;;;;;;;3.65;1.35;;;23.00;96.10;;;;;;5052946;28;20049;-47
2022/08/08 09:14:24;;;;;;;;;;;23.20;96.50;;;;;;5053284;28;20394;-46
2022/08/08 09:16:51;;;;;;;2.13;1.20;;;23.70;95.60;;;;;;5052952;28;19920;-48
2022/08/08 09:19:17;;;;;;;2.25;1.02;;;23.90;95.20;;;;;;5052667;28;20512;-46
2022/08/08 09:21:48;;;;;;;2.65;0.90;;;23.80;95.00;;;;;;5052894;28;20033;-46
2022/08/08 09:24:14;;;;;;;3.97;1.20;;;23.10;94.60;;;;;;5052712;28;20568;-47
2022/08/08 09:27:01;;;;;;;5.13;1.42;;;23.10;94.90;;;;;;5052667;28;20037;-49
2022/08/08 09:29:35;;;;;;;2.08;0.93;;;22.90;95.10;;;;;;5052790;28;20053;-47
2022/08/08 09:32:06;;;;;;;3.25;1.25;;;22.80;95.30;;;;;;5034957;28;20049;-46
2022/08/08 09:34:34;;;;;;;3.55;1.35;;;22.70;95.80;;;;;;5052659;28;20498;-46
2022/08/08 09:37:09;;;;;;;;;;;22.80;96.80;;;;;;5053117;28;20123;-51
2022/08/08 09:39:47;;;;;;;3.38;1.52;;;23.00;96.90;;;;;;5052851;28;20297;-48
2022/08/08 09:42:15;;;;;;;4.22;1.58;;;22.70;96.60;;;;;;5052717;28;20128;-49
2022/08/08 09:45:02;;;;;;;6.00;1.42;;;22.60;96.80;;;;;;5052521;28;20116;-47
2022/08/08 09:47:31;;;;;;;3.83;1.40;;;22.70;97.20;;;;;;5052570;28;20045;-45
2022/08/08 09:49:58;;;;;;;4.22;1.45;;;23.10;97.00;;;;;;5054148;28;20057;-45
2022/08/08 09:52:30;;;;;;;4.93;1.40;;;23.50;97.00;;;;;;5056454;28;20136;-45
2022/08/08 09:54:55;;;;;;;3.33;1.40;;;24.00;96.50;;;;;;5056518;28;20069;-46
2022/08/08 09:57:32;;;;;;;2.95;1.20;;;24.20;95.80;;;;;;5056659;28;20391;-46
2022/08/08 09:59:59;;;;;;;2.95;1.02;;;24.60;95.50;;;;;;5056303;28;20373;-47
2022/08/08 10:02:35;;;;;;;3.63;1.23;;;24.30;94.70;;;;;;5038745;28;20127;-48
2022/08/08 10:05:28;;;;;;;3.45;1.08;;;24.70;95.50;;;;;;5056166;28;20049;-45
2022/08/08 10:07:57;;;;;;;4.00;1.17;;;24.20;94.20;;;;;;5054217;28;20122;-47
2022/08/08 10:10:29;;;;;;;2.63;1.00;;;24.10;94.20;;;;;;5056381;28;20088;-49
2022/08/08 10:12:56;;;;;;;3.92;1.50;;;23.60;93.30;;;;;;5056142;28;20049;-49
2022/08/08 10:15:27;;;;;;;2.85;1.00;;;23.80;94.40;;;;;;5055937;28;20506;-46
2022/08/08 10:17:54;;;;;;;3.10;1.27;;;23.60;94.00;;;;;;5021578;28;20502;-48
2022/08/08 10:20:22;;;;;;;2.85;1.30;;;23.40;93.80;;;;;;5056060;28;20417;-45
2022/08/08 10:23:00;;;;;;;4.10;1.20;;;23.70;94.50;;;;;;5055849;28;20059;-48
2022/08/08 10:25:27;;;;;;;4.45;1.20;;;24.10;94.50;;;;;;5055594;28;20452;-45
2022/08/08 10:27:54;;;;;;;4.95;1.25;;;23.80;94.20;;;;;;5055798;28;20048;-45
2022/08/08 10:30:22;;;;;;;3.33;1.00;;;24.40;95.20;;;;;;5055808;28;20055;-46
2022/08/08 10:32:55;;;;;;;3.95;1.20;;;24.80;93.80;;;;;;5055777;28;20036;-46
2022/08/08 10:35:29;;;;;;;4.18;1.20;;;25.10;93.70;;;;;;5055786;28;20040;-44
2022/08/08 10:38:01;;;;;;;3.67;1.00;;;24.80;93.00;;;;;;5055709;28;20041;-45
2022/08/08 10:40:30;;;;;;;3.40;1.10;;;24.00;92.50;;;;;;5055501;28;20084;-46
2022/08/08 10:42:58;;;;;;;3.47;1.10;;;23.60;93.50;;;;;;5055248;28;20483;-45
2022/08/08 10:45:24;;;;;;;2.72;1.20;;;23.60;93.80;;;;;;5055398;28;20083;-45
2022/08/08 10:47:58;;;;;;;3.33;1.30;;;23.60;94.30;;;;;;5055423;28;20072;-45
2022/08/08 10:50:32;;;;;;;4.22;1.00;;;23.60;94.30;;;;;;5055377;28;20121;-45
2022/08/08 10:53:06;;;;;;;3.85;1.10;;;23.70;94.60;;;;;;5055601;28;20103;-45
2022/08/08 10:55:33;;;;;;;2.38;0.90;;;23.50;94.50;;;;;;5055484;28;20037;-45
2022/08/08 10:58:04;;;;;;;2.97;1.10;;;23.20;94.50;;;;;;5055120;28;20468;-45
2022/08/08 11:00:31;;;;;;;4.53;1.40;;;23.50;94.40;;;;;;5054603;28;20047;-45
2022/08/08 11:03:09;;;;;;;2.40;1.00;;;23.50;93.80;;;;;;5054504;28;20493;-46
2022/08/08 11:05:47;;;;;;;2.83;1.17;;;23.80;94.10;;;;;;5055150;28;20053;-45
2022/08/08 11:08:28;;;;;;;4.53;1.13;;;23.80;93.70;;;;;;5054951;28;20372;-48
2022/08/08 11:11:04;;;;;;;3.40;1.00;;;23.60;94.50;;;;;;5055147;28;20056;-48
2022/08/08 11:13:43;;;;;;;4.18;1.20;;;23.40;94.50;;;;;;5054903;28;20505;-50
2022/08/08 11:16:19;;;;;;;1.65;1.00;;;23.00;94.60;;;;;;5054823;28;20033;-45
2022/08/08 11:18:47;;;;;;;3.45;1.02;;;22.80;94.90;;;;;;5054949;28;20045;-47
2022/08/08 11:21:14;;;;;;;1.80;1.00;;;23.00;95.20;;;;;;5054612;28;20125;-44
2022/08/08 11:23:41;;;;;;;3.10;1.23;;;23.20;95.40;;;;;;5054803;28;20052;-48
2022/08/08 11:26:09;;;;;;;4.18;2.05;;;23.50;95.30;;;;;;5054583;28;20036;-48
2022/08/08 11:28:36;;;;;;;2.55;0.85;;;23.80;94.30;;;;;;5054405;28;20494;-45
2022/08/08 11:31:04;;;;;;;5.53;1.00;;;23.90;94.00;;;;;;5036907;28;20514;-45
2022/08/08 11:33:34;;;;;;;3.45;1.20;;;23.70;93.50;;;;;;5054443;28;20055;-45
2022/08/08 11:36:00;;;;;;;3.33;1.10;;;24.50;94.40;;;;;;5054953;28;20047;-44
2022/08/08 11:38:26;;;;;;;2.97;1.10;;;24.70;93.90;;;;;;5054535;28;20040;-47
2022/08/08 11:40:53;;;;;;;2.03;1.10;;;24.40;93.70;;;;;;5054219;28;20072;-46
2022/08/08 11:43:20;;;;;;;4.15;1.10;;;24.50;93.30;;;;;;5054452;28;20122;-45
2022/08/08 11:45:47;;;;;;;2.40;1.00;;;24.60;93.60;;;;;;5054277;28;20048;-45
2022/08/08 11:48:13;;;;;;;;;;;24.20;93.00;;;;;;5054600;28;20099;-45
2022/08/08 11:50:40;;;;;;;2.53;1.10;;;24.60;93.70;;;;;;5053892;28;19925;-46
2022/08/08 11:53:07;;;;;;;6.07;1.00;;;24.50;92.70;;;;;;5054248;28;20053;-45
2022/08/08 11:55:36;;;;;;;2.85;0.80;;;24.60;93.00;;;;;;5036449;28;20494;-46
2022/08/08 11:58:11;;;;;;;2.75;0.98;;;24.60;94.70;;;;;;5053973;28;20090;-45
2022/08/08 12:00:51;;;;;;;3.75;0.80;;;24.70;92.00;;;;;;5053868;28;20487;-46
2022/08/08 12:03:30;;;;;;;1.48;0.82;;;24.50;92.00;;;;;;5054210;28;20040;-46
2022/08/08 12:05:55;;;;;;;2.25;0.90;;;24.20;91.90;;;;;;5053744;28;20466;-46
2022/08/08 12:08:32;;;;;;;2.45;0.95;;;24.00;91.90;;;;;;5053919;28;20112;-45
2022/08/08 12:11:17;;;;;;;2.97;0.88;;;23.90;92.00;;;;;;5053747;28;20124;-47
2022/08/08 12:13:43;;;;;;;1.73;0.70;;;23.80;91.70;;;;;;5053674;28;20060;-49
2022/08/08 12:16:16;;;;;;;1.67;0.82;;;24.30;91.90;;;;;;5053753;28;20438;-47
2022/08/08 12:18:49;;;;;;;2.38;0.70;;;24.20;91.50;;;;;;5053902;28;20124;-48
2022/08/08 12:21:26;;;;;;;3.65;1.00;;;24.40;91.10;;;;;;5053665;28;20052;-45
2022/08/08 12:24:05;;;;;;;2.10;0.90;;;24.50;91.60;;;;;;5053574;28;20048;-48
2022/08/08 12:26:39;;;;;;;3.28;0.80;;;24.30;91.70;;;;;;5053350;28;20047;-49
2022/08/08 12:29:36;;;;;;;2.80;0.90;;;24.30;91.10;;;;;;5035689;28;20131;-47
2022/08/08 12:32:09;;;;;;;1.85;0.77;;;24.20;91.70;;;;;;5010862;28;20056;-45
2022/08/08 12:34:49;;;;;;;1.13;0.55;;;24.10;91.40;;;;;;5053313;28;20395;-47
2022/08/08 12:37:19;;;;;;;1.42;0.80;;;24.00;90.80;;;;;;5053594;28;20131;-46
2022/08/08 12:39:45;;;;;;;4.25;0.70;;;24.00;90.80;;;;;;5053056;28;20041;-47
2022/08/08 12:42:10;;;;;;;2.45;1.27;;;24.20;91.10;;;;;;5053069;28;20128;-46
2022/08/08 12:44:39;;;;;;;2.20;0.63;;;24.40;91.20;;;;;;5052861;28;20091;-45
2022/08/08 12:47:06;;;;;;;3.90;1.00;;;24.70;91.10;;;;;;5053277;28;20044;-49
2022/08/08 12:49:37;;;;;;;2.50;0.82;;;25.00;92.00;;;;;;5052814;28;20053;-49
2022/08/08 12:52:04;;;;;;;2.10;0.68;;;24.80;92.00;;;;;;5035319;28;20437;-45
2022/08/08 12:54:35;;;;;;;5.35;0.82;;;24.90;92.10;;;;;;5052894;28;20478;-46
2022/08/08 12:57:14;;;;;;;3.35;0.90;;;24.80;91.80;;;;;;5052955;28;20033;-47
2022/08/08 12:59:50;;;;;;;4.38;1.02;;;24.60;91.70;;;;;;5053097;28;20048;-45
2022/08/08 13:02:27;;;;;;;2.28;1.02;;;24.40;92.40;;;;;;5053060;28;20087;-48
2022/08/08 13:04:55;;;;;;;1.88;0.65;;;24.40;91.80;;;;;;5052710;28;20124;-45
2022/08/08 13:07:33;;;;;;;2.38;0.82;;;24.00;92.10;;;;;;5052809;28;20406;-48
2022/08/08 13:09:59;;;;;;;1.27;0.70;;;24.00;92.40;;;;;;5034853;28;20052;-45
2022/08/08 13:12:35;;;;;;;3.15;0.93;;;24.00;92.50;;;;;;5052872;28;20044;-46
2022/08/08 13:15:04;;;;;;;2.15;0.95;;;24.30;92.00;;;;;;5052880;28;20071;-45
2022/08/08 13:17:31;;;;;;;1.70;0.68;;;24.40;92.50;;;;;;5052747;28;20372;-45
2022/08/08 13:19:56;;;;;;;4.43;0.77;;;24.50;91.10;;;;;;5052837;28;20041;-46
2022/08/08 13:22:22;;;;;;;1.42;0.70;;;24.40;91.80;;;;;;5052507;28;20045;-45
2022/08/08 13:24:49;;;;;;;1.67;0.80;;;24.40;91.90;;;;;;5054405;28;20044;-47
2022/08/08 13:27:16;;;;;;;1.92;0.77;;;24.70;91.80;;;;;;5056998;28;20052;-50